Time;durP1;ratioP1;P1;durP2;ratioP2;P2;SDS_P1;SDS_P2;PMS_P1;PMS_P2;Temp;Humidity;BMP_temperature;BMP_pressure;BME280_temperature;BME280_humidity;BME280_pressure;Samples;Min_cycle;Max_cycle;Signal;HPM_P1;HPM_P2
2022/01/06 00:00:02;;;;;;;8.38;2.10;;;;;;;;;;5068250;28;20085;-72
2022/01/06 00:02:29;;;;;;;14.00;2.58;;;;;;;;;;5068225;28;20054;-77
2022/01/06 00:04:55;;;;;;;13.88;2.40;;;;;;;;;;5066474;28;20048;-77
2022/01/06 00:07:20;;;;;;;21.08;3.05;;;;;;;;;;5068793;28;20087;-77
2022/01/06 00:09:48;;;;;;;10.80;2.58;;;;;;;;;;5070433;28;20059;-77
2022/01/06 00:12:16;;;;;;;18.20;2.85;;;;;;;;;;5058080;28;20063;-77
2022/01/06 00:14:58;;;;;;;13.63;2.45;;;;;;;;;;5059827;28;20045;-75
2022/01/06 00:17:53;;;;;;;14.93;2.88;;;;;;;;;;5062668;28;20967;-76
2022/01/06 00:25:48;;;;;;;11.38;2.33;;;;;;;;;;5074469;28;20113;-76
2022/01/06 00:28:14;;;;;;;15.80;3.42;;;;;;;;;;5066688;28;20028;-76
2022/01/06 00:30:39;;;;;;;13.77;3.22;;;;;;;;;;5072203;28;20025;-76
2022/01/06 00:33:05;;;;;;;13.18;2.33;;;;;;;;;;5069890;28;20120;-73
2022/01/06 00:35:30;;;;;;;11.50;2.45;;;;;;;;;;5071576;28;20112;-76
2022/01/06 00:37:55;;;;;;;14.13;2.53;;;;;;;;;;5072762;28;20097;-76
2022/01/06 00:40:21;;;;;;;14.10;2.60;;;;;;;;;;5072568;28;20248;-76
2022/01/06 00:42:46;;;;;;;11.77;2.30;;;;;;;;;;5072484;28;20033;-76
2022/01/06 00:45:12;;;;;;;17.10;3.20;;;;;;;;;;5069891;28;20103;-77
2022/01/06 00:47:37;;;;;;;12.52;2.55;;;;;;;;;;5071207;28;20039;-76
2022/01/06 00:50:04;;;;;;;15.65;2.60;;;;;;;;;;5073408;28;20036;-73
2022/01/06 00:52:29;;;;;;;10.38;2.50;;;;;;;;;;5072696;28;20067;-76
2022/01/06 00:54:54;;;;;;;15.50;2.45;;;;;;;;;;5064050;28;20064;-74
2022/01/06 00:57:20;;;;;;;14.13;2.25;;;;;;;;;;5060221;28;20037;-75
2022/01/06 00:59:45;;;;;;;14.57;2.63;;;;;;;;;;5068067;28;20029;-75
2022/01/06 01:02:11;;;;;;;9.63;2.42;;;;;;;;;;5070450;28;20450;-74
2022/01/06 01:04:36;;;;;;;19.50;2.53;;;;;;;;;;5071917;28;20078;-74
2022/01/06 01:07:02;;;;;;;13.02;2.55;;;;;;;;;;5072746;28;20032;-74
2022/01/06 01:09:27;;;;;;;17.45;2.88;;;;;;;;;;5070076;28;20052;-73
2022/01/06 01:11:53;;;;;;;12.35;2.40;;;;;;;;;;5062679;28;20037;-73
2022/01/06 01:14:31;;;;;;;14.25;2.50;;;;;;;;;;5068955;28;20097;-73
2022/01/06 01:16:59;;;;;;;13.00;2.40;;;;;;;;;;5071082;28;20040;-72
2022/01/06 01:19:25;;;;;;;14.10;2.22;;;;;;;;;;5069451;28;20092;-72
2022/01/06 01:21:52;;;;;;;14.50;2.53;;;;;;;;;;5071879;28;20375;-72
2022/01/06 01:24:18;;;;;;;20.52;2.92;;;;;;;;;;5071950;28;20039;-72
2022/01/06 01:26:43;;;;;;;16.55;2.40;;;;;;;;;;5071595;28;20032;-71
2022/01/06 01:29:14;;;;;;;18.83;2.53;;;;;;;;;;5070010;28;20402;-71
2022/01/06 01:31:45;;;;;;;14.13;2.50;;;;;;;;;;5071523;28;20071;-70
2022/01/06 01:34:12;;;;;;;22.92;3.10;;;;;;;;;;5070657;28;20066;-71
2022/01/06 01:36:39;;;;;;;28.00;2.78;;;;;;;;;;5071286;28;20040;-70
2022/01/06 01:39:05;;;;;;;13.52;2.95;;;;;;;;;;5072195;28;20033;-71
2022/01/06 01:41:31;;;;;;;10.77;2.40;;;;;;;;;;5070695;28;20533;-70
2022/01/06 01:43:57;;;;;;;15.60;2.75;;;;;;;;;;5066862;28;20128;-70
2022/01/06 01:46:30;;;;;;;10.38;2.17;;;;;;;;;;5068503;28;20037;-71
2022/01/06 01:51:36;;;;;;;15.95;2.40;;;;;;;;;;5072331;28;20069;-70
2022/01/06 01:54:01;;;;;;;13.85;2.85;;;;;;;;;;5070380;28;20076;-70
2022/01/06 01:56:27;;;;;;;15.43;2.58;;;;;;;;;;5069833;28;20028;-70
2022/01/06 01:58:52;;;;;;;14.15;2.45;;;;;;;;;;5069947;28;20035;-70
2022/01/06 02:01:17;;;;;;;12.45;2.10;;;;;;;;;;5067653;28;20037;-70
2022/01/06 02:03:43;;;;;;;14.02;2.72;;;;;;;;;;5067615;28;20467;-70
2022/01/06 02:06:08;;;;;;;18.17;2.92;;;;;;;;;;5061718;28;20032;-71
2022/01/06 02:08:34;;;;;;;18.60;2.72;;;;;;;;;;5071280;28;20035;-70
2022/01/06 02:10:59;;;;;;;18.30;2.83;;;;;;;;;;5071706;28;20039;-69
2022/01/06 02:13:28;;;;;;;13.25;2.60;;;;;;;;;;5067738;28;20037;-69
2022/01/06 02:15:55;;;;;;;18.52;2.85;;;;;;;;;;5069527;28;20037;-69
2022/01/06 02:18:20;;;;;;;13.40;2.25;;;;;;;;;;5067801;28;20028;-69
2022/01/06 02:20:46;;;;;;;14.15;2.28;;;;;;;;;;5072418;28;20455;-69
2022/01/06 02:23:11;;;;;;;14.85;3.00;;;;;;;;;;5068579;28;20036;-71
2022/01/06 02:25:37;;;;;;;11.32;3.13;;;;;;;;;;5072423;28;20040;-70
2022/01/06 02:28:03;;;;;;;15.43;3.30;;;;;;;;;;5067824;28;20025;-71
2022/01/06 02:30:32;;;;;;;13.70;2.50;;;;;;;;;;5069430;28;20059;-70
2022/01/06 02:33:01;;;;;;;10.38;2.20;;;;;;;;;;5071023;28;20107;-70
2022/01/06 02:35:27;;;;;;;17.00;2.63;;;;;;;;;;5070451;28;20462;-70
2022/01/06 02:37:53;;;;;;;19.50;2.30;;;;;;;;;;5069910;28;20029;-70
2022/01/06 02:40:22;;;;;;;14.80;2.63;;;;;;;;;;5070624;28;20103;-70
2022/01/06 02:42:51;;;;;;;16.73;2.38;;;;;;;;;;5068875;28;20497;-69
2022/01/06 02:45:18;;;;;;;13.85;2.65;;;;;;;;;;5067228;28;20028;-70
2022/01/06 02:47:45;;;;;;;12.63;2.30;;;;;;;;;;5069005;28;20044;-70
2022/01/06 02:50:12;;;;;;;16.88;2.15;;;;;;;;;;5069421;28;20025;-71
2022/01/06 02:52:37;;;;;;;12.75;2.20;;;;;;;;;;5069942;28;20081;-70
2022/01/06 02:55:06;;;;;;;16.17;2.22;;;;;;;;;;5070107;28;20350;-70
2022/01/06 02:57:31;;;;;;;18.88;2.28;;;;;;;;;;5069235;28;20025;-69
2022/01/06 02:59:57;;;;;;;18.83;2.63;;;;;;;;;;5067880;28;20189;-70
2022/01/06 03:02:22;;;;;;;14.27;2.88;;;;;;;;;;5068034;28;20033;-70
2022/01/06 03:04:47;;;;;;;15.88;3.60;;;;;;;;;;5069893;28;20036;-70
2022/01/06 03:07:13;;;;;;;20.20;2.63;;;;;;;;;;5070620;28;20041;-71
2022/01/06 03:09:40;;;;;;;13.50;2.22;;;;;;;;;;5071732;28;20032;-70
2022/01/06 03:12:22;;;;;;;10.95;2.17;;;;;;;;;;5069845;28;20090;-70
2022/01/06 03:14:47;;;;;;;17.33;2.30;;;;;;;;;;5067991;28;20473;-69
2022/01/06 03:17:13;;;;;;;10.40;2.70;;;;;;;;;;5068305;28;20040;-71
2022/01/06 03:19:38;;;;;;;14.02;2.47;;;;;;;;;;5070003;28;20363;-70
2022/01/06 03:22:04;;;;;;;12.77;2.58;;;;;;;;;;5070332;28;20029;-70
2022/01/06 03:24:29;;;;;;;18.20;2.78;;;;;;;;;;5068326;28;20077;-70
2022/01/06 03:26:54;;;;;;;10.73;2.35;;;;;;;;;;5070618;28;20066;-70
2022/01/06 03:29:20;;;;;;;15.68;2.50;;;;;;;;;;5067677;28;20035;-70
2022/01/06 03:31:45;;;;;;;18.65;2.28;;;;;;;;;;5067922;28;20115;-70
2022/01/06 03:34:11;;;;;;;21.27;2.80;;;;;;;;;;5069960;28;20493;-70
2022/01/06 03:36:36;;;;;;;19.40;2.67;;;;;;;;;;5069437;28;20036;-70
2022/01/06 03:39:03;;;;;;;16.65;2.95;;;;;;;;;;5067327;28;20033;-70
2022/01/06 03:41:28;;;;;;;15.10;2.50;;;;;;;;;;5067529;28;20116;-70
2022/01/06 03:43:54;;;;;;;16.83;2.47;;;;;;;;;;5062761;28;20527;-70
2022/01/06 03:46:19;;;;;;;18.27;3.22;;;;;;;;;;5058876;28;20119;-70
2022/01/06 03:48:45;;;;;;;11.27;2.20;;;;;;;;;;5068022;28;20103;-69
2022/01/06 03:51:10;;;;;;;14.07;2.75;;;;;;;;;;5070281;28;20123;-70
2022/01/06 03:53:35;;;;;;;16.30;2.97;;;;;;;;;;5072230;28;20324;-70
2022/01/06 03:56:01;;;;;;;15.27;2.30;;;;;;;;;;5074748;28;20028;-70
2022/01/06 03:58:26;;;;;;;12.27;2.60;;;;;;;;;;5071353;28;20427;-70
2022/01/06 04:00:51;;;;;;;17.30;2.70;;;;;;;;;;5071283;28;20036;-70
2022/01/06 04:03:17;;;;;;;14.75;2.60;;;;;;;;;;5073559;28;20036;-70
2022/01/06 04:05:42;;;;;;;15.85;3.13;;;;;;;;;;5074479;28;20123;-70
2022/01/06 04:08:08;;;;;;;16.73;3.28;;;;;;;;;;5073669;28;20032;-70
2022/01/06 04:10:33;;;;;;;21.02;3.47;;;;;;;;;;5073510;28;20731;-70
2022/01/06 04:12:59;;;;;;;14.95;2.67;;;;;;;;;;5072343;28;20032;-69
2022/01/06 04:15:26;;;;;;;12.45;2.65;;;;;;;;;;5071538;28;20057;-70
2022/01/06 04:17:52;;;;;;;14.20;2.33;;;;;;;;;;5073586;28;20036;-70
2022/01/06 04:20:17;;;;;;;16.38;2.45;;;;;;;;;;5071478;28;20044;-70
2022/01/06 04:22:44;;;;;;;13.07;2.20;;;;;;;;;;5073919;28;20505;-69
2022/01/06 04:25:09;;;;;;;22.95;2.60;;;;;;;;;;5071293;28;20059;-70
2022/01/06 04:27:35;;;;;;;12.77;2.08;;;;;;;;;;5070550;28;20612;-70
2022/01/06 04:30:02;;;;;;;19.83;3.83;;;;;;;;;;5073110;28;20107;-70
2022/01/06 04:32:27;;;;;;;14.52;2.65;;;;;;;;;;5069429;28;20036;-70
2022/01/06 04:34:52;;;;;;;16.23;2.47;;;;;;;;;;5073938;28;20035;-69
2022/01/06 04:37:18;;;;;;;17.50;2.58;;;;;;;;;;5073239;28;20402;-70
2022/01/06 04:39:43;;;;;;;11.65;2.70;;;;;;;;;;5073285;28;20040;-69
2022/01/06 04:42:09;;;;;;;15.85;2.90;;;;;;;;;;5073798;28;20032;-69
2022/01/06 04:44:34;;;;;;;22.40;2.78;;;;;;;;;;5069526;28;20120;-69
2022/01/06 04:47:00;;;;;;;18.92;3.45;;;;;;;;;;5068526;28;20466;-69
2022/01/06 04:49:26;;;;;;;13.30;2.25;;;;;;;;;;5071325;28;20451;-69
2022/01/06 04:51:52;;;;;;;19.58;2.08;;;;;;;;;;5071429;28;20416;-69
2022/01/06 04:54:17;;;;;;;11.95;2.67;;;;;;;;;;5073175;28;20028;-70
2022/01/06 04:56:43;;;;;;;22.63;2.63;;;;;;;;;;5073185;28;20440;-69
2022/01/06 04:59:09;;;;;;;16.20;2.33;;;;;;;;;;5070954;28;20040;-68
2022/01/06 05:01:38;;;;;;;20.65;2.83;;;;;;;;;;5070106;28;20040;-69
2022/01/06 05:04:03;;;;;;;11.77;2.50;;;;;;;;;;5071986;28;20486;-68
2022/01/06 05:06:29;;;;;;;9.55;2.20;;;;;;;;;;5068906;28;20051;-69
2022/01/06 05:08:54;;;;;;;18.95;2.63;;;;;;;;;;5073323;28;20039;-68
2022/01/06 05:11:20;;;;;;;12.73;2.30;;;;;;;;;;5071726;28;20393;-70
2022/01/06 05:13:46;;;;;;;12.65;2.10;;;;;;;;;;5069808;28;20089;-67
2022/01/06 05:16:11;;;;;;;15.40;2.80;;;;;;;;;;5071320;28;20062;-69
2022/01/06 05:18:38;;;;;;;14.23;2.40;;;;;;;;;;5070699;28;20122;-69
2022/01/06 05:21:07;;;;;;;14.30;2.45;;;;;;;;;;5071387;28;20047;-68
2022/01/06 05:23:33;;;;;;;21.20;2.90;;;;;;;;;;5071604;28;20041;-69
2022/01/06 05:25:59;;;;;;;19.95;2.28;;;;;;;;;;5071282;28;20040;-69
2022/01/06 05:28:24;;;;;;;17.25;2.50;;;;;;;;;;5069735;28;20028;-69
2022/01/06 05:30:50;;;;;;;13.80;2.58;;;;;;;;;;5070539;28;20028;-68
2022/01/06 05:33:15;;;;;;;14.50;2.40;;;;;;;;;;5065424;28;20099;-68
2022/01/06 05:35:41;;;;;;;15.27;2.40;;;;;;;;;;5066986;28;20595;-68
2022/01/06 05:38:06;;;;;;;11.52;2.50;;;;;;;;;;5079155;28;20036;-68
2022/01/06 05:40:31;;;;;;;21.58;2.88;;;;;;;;;;5072366;28;20131;-68
2022/01/06 05:42:57;;;;;;;18.63;2.35;;;;;;;;;;5072586;28;20474;-67
2022/01/06 05:45:24;;;;;;;12.98;2.28;;;;;;;;;;5072586;28;20028;-69
2022/01/06 05:47:50;;;;;;;14.80;3.33;;;;;;;;;;5071753;28;20029;-67
2022/01/06 05:50:15;;;;;;;17.95;3.53;;;;;;;;;;5071267;28;20040;-68
2022/01/06 05:52:41;;;;;;;19.10;2.60;;;;;;;;;;5061595;28;20636;-69
2022/01/06 05:55:07;;;;;;;16.92;2.80;;;;;;;;;;5067320;28;20119;-70
2022/01/06 05:57:32;;;;;;;16.05;2.25;;;;;;;;;;5072112;28;20501;-68
2022/01/06 05:59:58;;;;;;;15.50;2.40;;;;;;;;;;5070351;28;20116;-65
2022/01/06 06:02:23;;;;;;;14.68;2.65;;;;;;;;;;5061488;28;20040;-65
2022/01/06 06:04:49;;;;;;;14.20;2.28;;;;;;;;;;5061689;28;20028;-64
2022/01/06 06:07:14;;;;;;;12.65;2.40;;;;;;;;;;5063168;28;20429;-64
2022/01/06 06:09:40;;;;;;;15.10;2.42;;;;;;;;;;5052149;28;20055;-65
2022/01/06 06:12:06;;;;;;;10.90;2.35;;;;;;;;;;5059972;28;20056;-65
2022/01/06 06:14:32;;;;;;;14.52;2.40;;;;;;;;;;5069473;28;20052;-66
2022/01/06 06:16:58;;;;;;;13.38;2.45;;;;;;;;;;5052429;28;20087;-66
2022/01/06 06:19:23;;;;;;;14.85;2.97;;;;;;;;;;5052363;28;20041;-68
2022/01/06 06:21:49;;;;;;;15.30;2.63;;;;;;;;;;5072401;28;20026;-64
2022/01/06 06:24:14;;;;;;;11.77;2.25;;;;;;;;;;5072459;28;20021;-66
2022/01/06 06:26:40;;;;;;;15.10;2.65;;;;;;;;;;5071244;28;20032;-64
2022/01/06 06:29:05;;;;;;;18.17;3.10;;;;;;;;;;5071367;28;20488;-64
2022/01/06 06:31:31;;;;;;;13.40;3.03;;;;;;;;;;5050454;28;20033;-65
2022/01/06 06:33:56;;;;;;;15.73;2.60;;;;;;;;;;5052148;28;20526;-64
2022/01/06 06:36:21;;;;;;;11.73;2.55;;;;;;;;;;5069144;28;20037;-68
2022/01/06 06:38:47;;;;;;;11.82;2.40;;;;;;;;;;5071080;28;20437;-64
2022/01/06 06:41:12;;;;;;;14.23;2.35;;;;;;;;;;5069144;28;20036;-62
2022/01/06 06:43:38;;;;;;;15.25;2.47;;;;;;;;;;5071218;28;20086;-64
2022/01/06 06:46:03;;;;;;;18.23;2.55;;;;;;;;;;5071855;28;20152;-64
2022/01/06 06:48:28;;;;;;;16.27;2.60;;;;;;;;;;5070909;28;20029;-65
2022/01/06 06:50:54;;;;;;;16.55;2.53;;;;;;;;;;5071830;28;20463;-65
2022/01/06 06:53:20;;;;;;;11.45;2.38;;;;;;;;;;5070965;28;20036;-62
2022/01/06 06:55:45;;;;;;;14.30;2.60;;;;;;;;;;5070092;28;20527;-62
2022/01/06 06:58:11;;;;;;;18.55;2.90;;;;;;;;;;5071398;28;20038;-63
2022/01/06 07:00:36;;;;;;;14.68;2.35;;;;;;;;;;5069574;28;20127;-64
2022/01/06 07:03:02;;;;;;;21.10;3.10;;;;;;;;;;5070837;28;20070;-62
2022/01/06 07:05:29;;;;;;;13.88;2.55;;;;;;;;;;5070326;28;20036;-65
2022/01/06 07:07:54;;;;;;;11.93;2.72;;;;;;;;;;5070551;28;20028;-63
2022/01/06 07:10:20;;;;;;;15.95;2.85;;;;;;;;;;5071686;28;20492;-63
2022/01/06 07:12:45;;;;;;;14.93;2.80;;;;;;;;;;5070378;28;20056;-65
2022/01/06 07:15:13;;;;;;;16.17;2.97;;;;;;;;;;5071430;28;20080;-64
2022/01/06 07:17:39;;;;;;;13.48;2.55;;;;;;;;;;5070937;28;20043;-64
2022/01/06 07:20:06;;;;;;;15.30;2.80;;;;;;;;;;5070302;28;20036;-63
2022/01/06 07:22:32;;;;;;;12.07;2.22;;;;;;;;;;5070874;28;20066;-64
2022/01/06 07:24:57;;;;;;;16.33;2.95;;;;;;;;;;5071133;28;20036;-64
2022/01/06 07:27:23;;;;;;;17.30;3.22;;;;;;;;;;5071286;28;20028;-63
2022/01/06 07:29:48;;;;;;;24.55;3.38;;;;;;;;;;5070601;28;20401;-63
2022/01/06 07:32:14;;;;;;;16.77;2.90;;;;;;;;;;5062324;28;20137;-64
2022/01/06 07:34:39;;;;;;;15.00;2.80;;;;;;;;;;5070045;28;20050;-63
2022/01/06 07:37:05;;;;;;;20.70;2.92;;;;;;;;;;5071451;28;20032;-64
2022/01/06 07:39:30;;;;;;;17.42;3.47;;;;;;;;;;5070473;28;20454;-64
2022/01/06 07:41:56;;;;;;;18.90;3.35;;;;;;;;;;5071572;28;20102;-63
2022/01/06 07:44:22;;;;;;;17.67;3.28;;;;;;;;;;5071336;28;20044;-64
2022/01/06 07:46:47;;;;;;;16.75;3.85;;;;;;;;;;5067726;28;20131;-64
2022/01/06 07:49:13;;;;;;;15.45;3.13;;;;;;;;;;5063522;28;20071;-62
2022/01/06 07:51:39;;;;;;;17.02;3.95;;;;;;;;;;5070409;28;20389;-63
2022/01/06 07:54:04;;;;;;;10.95;3.35;;;;;;;;;;5058069;28;20037;-68
2022/01/06 07:56:30;;;;;;;14.98;3.58;;;;;;;;;;5066541;28;20051;-66
2022/01/06 07:58:56;;;;;;;17.55;4.38;;;;;;;;;;5070416;28;20059;-68
2022/01/06 08:01:22;;;;;;;16.95;4.00;;;;;;;;;;5071414;28;20031;-68
2022/01/06 08:03:47;;;;;;;15.82;4.50;;;;;;;;;;5067896;28;20052;-68
2022/01/06 08:06:14;;;;;;;19.17;4.05;;;;;;;;;;5071314;28;20032;-68
2022/01/06 08:08:41;;;;;;;16.45;3.92;;;;;;;;;;5070335;28;20028;-68
2022/01/06 08:11:06;;;;;;;16.33;3.72;;;;;;;;;;5070900;28;20028;-61
2022/01/06 08:13:32;;;;;;;15.02;4.05;;;;;;;;;;5067263;28;20040;-61
2022/01/06 08:15:57;;;;;;;22.20;3.78;;;;;;;;;;5071411;28;20053;-62
2022/01/06 08:18:23;;;;;;;21.05;3.95;;;;;;;;;;5070200;28;20040;-61
2022/01/06 08:20:49;;;;;;;21.98;4.22;;;;;;;;;;5070446;28;20122;-61
2022/01/06 08:23:14;;;;;;;24.48;4.53;;;;;;;;;;5070630;28;20111;-61
2022/01/06 08:25:40;;;;;;;21.40;4.10;;;;;;;;;;5070260;28;20028;-60
2022/01/06 08:28:05;;;;;;;18.42;4.22;;;;;;;;;;5075138;28;20470;-62
2022/01/06 08:30:31;;;;;;;21.33;4.35;;;;;;;;;;5070207;28;20541;-65
2022/01/06 08:32:57;;;;;;;13.10;3.90;;;;;;;;;;5070273;28;20037;-62
2022/01/06 08:35:23;;;;;;;19.38;4.53;;;;;;;;;;5064586;28;21790;-61
2022/01/06 08:37:48;;;;;;;14.35;4.05;;;;;;;;;;5069578;28;20032;-62
2022/01/06 08:40:14;;;;;;;20.52;4.75;;;;;;;;;;5071102;28;20389;-61
2022/01/06 08:42:40;;;;;;;13.25;3.90;;;;;;;;;;5072739;28;20051;-62
2022/01/06 08:45:06;;;;;;;15.45;4.10;;;;;;;;;;5064998;28;20037;-61
2022/01/06 08:47:32;;;;;;;13.75;4.15;;;;;;;;;;5061019;28;20024;-64
2022/01/06 08:49:57;;;;;;;12.88;4.18;;;;;;;;;;5074338;28;20540;-62
2022/01/06 08:52:24;;;;;;;15.45;4.95;;;;;;;;;;5073846;28;20039;-62
2022/01/06 08:54:49;;;;;;;35.45;9.20;;;;;;;;;;5072876;28;20103;-62
2022/01/06 08:57:15;;;;;;;42.38;8.45;;;;;;;;;;5074113;28;20158;-62
2022/01/06 08:59:40;;;;;;;25.92;6.28;;;;;;;;;;5070768;28;20061;-61
2022/01/06 09:02:05;;;;;;;33.88;9.52;;;;;;;;;;5072106;28;20074;-61
2022/01/06 09:04:31;;;;;;;47.80;12.85;;;;;;;;;;5073234;28;20090;-64
2022/01/06 09:06:58;;;;;;;35.70;10.35;;;;;;;;;;5073309;28;20044;-62
2022/01/06 09:09:24;;;;;;;20.52;5.93;;;;;;;;;;5073700;28;20108;-61
2022/01/06 09:11:50;;;;;;;20.02;5.68;;;;;;;;;;5072851;28;20052;-62
2022/01/06 09:14:16;;;;;;;36.00;8.88;;;;;;;;;;5068458;28;20103;-61
2022/01/06 09:16:43;;;;;;;44.50;10.85;;;;;;;;;;5067757;28;20036;-61
2022/01/06 09:19:09;;;;;;;38.05;9.88;;;;;;;;;;5073367;28;20033;-62
2022/01/06 09:21:35;;;;;;;46.47;12.23;;;;;;;;;;5071411;28;20136;-62
2022/01/06 09:24:01;;;;;;;23.83;7.82;;;;;;;;;;5072761;28;20085;-62
2022/01/06 09:26:27;;;;;;;29.15;6.55;;;;;;;;;;5071136;28;20028;-62
2022/01/06 09:28:53;;;;;;;16.80;4.90;;;;;;;;;;5074471;28;20055;-61
2022/01/06 09:31:18;;;;;;;33.67;8.93;;;;;;;;;;5057039;28;20057;-61
2022/01/06 09:33:44;;;;;;;54.13;13.38;;;;;;;;;;5052539;28;20383;-61
2022/01/06 09:36:09;;;;;;;45.65;12.85;;;;;;;;;;5051997;28;20112;-61
2022/01/06 09:38:35;;;;;;;37.42;10.57;;;;;;;;;;5052857;28;20029;-63
2022/01/06 09:41:05;;;;;;;31.27;9.27;;;;;;;;;;5053257;28;20071;-61
2022/01/06 09:43:32;;;;;;;20.77;6.07;;;;;;;;;;5051972;28;20573;-64
2022/01/06 09:46:08;;;;;;;16.63;5.95;;;;;;;;;;5054733;28;20711;-61
2022/01/06 09:48:35;;;;;;;17.60;6.10;;;;;;;;;;5051637;28;20427;-64
2022/01/06 09:51:01;;;;;;;19.45;5.85;;;;;;;;;;5053060;28;20032;-61
2022/01/06 09:53:26;;;;;;;20.20;5.55;;;;;;;;;;5053324;28;20025;-62
2022/01/06 09:55:52;;;;;;;16.80;5.03;;;;;;;;;;5052115;28;20212;-62
2022/01/06 09:58:23;;;;;;;23.27;6.15;;;;;;;;;;5052977;28;20033;-61
2022/01/06 10:00:49;;;;;;;;;;;;;;;;;;5058907;28;20493;-61
2022/01/06 10:03:15;;;;;;;18.30;4.90;;;;;;;;;;5053130;28;19909;-61
2022/01/06 10:05:45;;;;;;;22.25;5.88;;;;;;;;;;5052148;28;20131;-61
2022/01/06 10:08:13;;;;;;;20.50;6.10;;;;;;;;;;5053115;28;20029;-61
2022/01/06 10:10:40;;;;;;;17.85;6.13;;;;;;;;;;5050840;28;20394;-62
2022/01/06 10:13:08;;;;;;;21.95;5.90;;;;;;;;;;5071446;28;20028;-61
2022/01/06 10:15:35;;;;;;;20.05;5.57;;;;;;;;;;5072163;28;20045;-64
2022/01/06 10:18:30;;;;;;;20.45;6.43;;;;;;;;;;5072319;28;20108;-62
2022/01/06 10:20:58;;;;;;;25.30;6.63;;;;;;;;;;5071067;28;20154;-62
2022/01/06 10:23:23;;;;;;;20.33;5.95;;;;;;;;;;5072611;28;20031;-61
2022/01/06 10:25:49;;;;;;;25.48;6.25;;;;;;;;;;5068645;28;20033;-62
2022/01/06 10:28:19;;;;;;;19.05;6.07;;;;;;;;;;5072420;28;20032;-62
2022/01/06 10:30:48;;;;;;;17.30;6.43;;;;;;;;;;5071534;28;20029;-62
2022/01/06 10:33:18;;;;;;;21.08;6.13;;;;;;;;;;5072557;28;20103;-62
2022/01/06 10:35:44;;;;;;;18.67;5.70;;;;;;;;;;5071576;28;20028;-62
2022/01/06 10:38:10;;;;;;;23.50;6.68;;;;;;;;;;5072240;28;20382;-62
2022/01/06 10:40:35;;;;;;;18.50;6.20;;;;;;;;;;5070285;28;20070;-65
2022/01/06 10:43:05;;;;;;;29.05;6.50;;;;;;;;;;5071757;28;20523;-62
2022/01/06 10:45:32;;;;;;;23.67;6.05;;;;;;;;;;5071567;28;20613;-62
2022/01/06 10:48:00;;;;;;;17.58;5.65;;;;;;;;;;5071138;28;20596;-62
2022/01/06 10:50:36;;;;;;;23.77;6.10;;;;;;;;;;5072201;28;20040;-62
2022/01/06 10:53:08;;;;;;;21.27;5.50;;;;;;;;;;5071805;28;20028;-62
2022/01/06 10:55:38;;;;;;;20.30;5.53;;;;;;;;;;5071790;28;20058;-63
2022/01/06 10:58:06;;;;;;;27.85;5.53;;;;;;;;;;5071327;28;20055;-62
2022/01/06 11:00:52;;;;;;;20.60;6.43;;;;;;;;;;5072090;28;20034;-62
2022/01/06 11:03:23;;;;;;;19.60;5.45;;;;;;;;;;5070305;28;20039;-62
2022/01/06 11:05:52;;;;;;;21.08;5.32;;;;;;;;;;5069982;28;20036;-63
2022/01/06 11:08:24;;;;;;;19.60;5.05;;;;;;;;;;5070708;28;20044;-63
2022/01/06 11:11:13;;;;;;;17.48;5.47;;;;;;;;;;5067321;28;20036;-62
2022/01/06 11:13:41;;;;;;;16.88;4.85;;;;;;;;;;5072072;28;20446;-65
2022/01/06 11:16:09;;;;;;;22.70;4.53;;;;;;;;;;5069476;28;20470;-62
2022/01/06 11:18:39;;;;;;;16.90;4.80;;;;;;;;;;5071012;28;20040;-63
2022/01/06 11:21:12;;;;;;;17.35;4.60;;;;;;;;;;5071277;28;20086;-63
2022/01/06 11:23:38;;;;;;;15.98;4.35;;;;;;;;;;5070949;28;20033;-65
2022/01/06 11:26:07;;;;;;;19.08;4.38;;;;;;;;;;5072003;28;20036;-63
2022/01/06 11:28:33;;;;;;;15.50;4.25;;;;;;;;;;5071153;28;20036;-63
2022/01/06 11:31:12;;;;;;;17.83;4.75;;;;;;;;;;5069460;28;20161;-63
2022/01/06 11:33:42;;;;;;;14.98;4.30;;;;;;;;;;5055257;28;20039;-66
2022/01/06 11:36:25;;;;;;;18.98;4.45;;;;;;;;;;5071305;28;20474;-67
2022/01/06 11:38:52;;;;;;;13.25;4.15;;;;;;;;;;5070371;28;20020;-66
2022/01/06 11:41:18;;;;;;;17.90;4.68;;;;;;;;;;5071092;28;20029;-63
2022/01/06 11:43:47;;;;;;;23.98;5.80;;;;;;;;;;5062492;28;20044;-64
2022/01/06 11:46:14;;;;;;;19.52;6.85;;;;;;;;;;5051441;28;20033;-63
2022/01/06 11:48:58;;;;;;;23.48;6.85;;;;;;;;;;5068438;28;20112;-65
2022/01/06 11:51:25;;;;;;;16.75;4.93;;;;;;;;;;5068686;28;20035;-62
2022/01/06 11:53:50;;;;;;;28.58;7.55;;;;;;;;;;5070062;28;20081;-63
2022/01/06 11:56:16;;;;;;;20.48;6.10;;;;;;;;;;5069291;28;20032;-63
2022/01/06 11:58:41;;;;;;;22.67;7.55;;;;;;;;;;5070519;28;20068;-66
2022/01/06 12:01:13;;;;;;;31.15;7.10;;;;;;;;;;5069649;28;20405;-63
2022/01/06 12:03:44;;;;;;;12.40;4.63;;;;;;;;;;5063728;28;20024;-65
2022/01/06 12:06:21;;;;;;;;;;;;;;;;;;5071287;28;20060;-64
2022/01/06 12:08:47;;;;;;;28.45;8.18;;;;;;;;;;5070466;28;20364;-64
2022/01/06 12:11:33;;;;;;;95.28;29.20;;;;;;;;;;5069585;28;20075;-62
2022/01/06 12:14:00;;;;;;;36.08;11.45;;;;;;;;;;5072355;28;20037;-62
2022/01/06 12:16:29;;;;;;;36.38;13.85;;;;;;;;;;5074889;28;20074;-64
2022/01/06 12:18:56;;;;;;;20.50;6.50;;;;;;;;;;5059758;28;20037;-64
2022/01/06 12:21:22;;;;;;;23.77;9.50;;;;;;;;;;5054540;28;20025;-64
2022/01/06 12:23:59;;;;;;;24.67;8.73;;;;;;;;;;5065665;28;20024;-66
2022/01/06 12:26:25;;;;;;;26.48;8.35;;;;;;;;;;5074328;28;20493;-63
2022/01/06 12:28:50;;;;;;;20.85;8.07;;;;;;;;;;5073234;28;20086;-63
2022/01/06 12:31:24;;;;;;;19.73;6.78;;;;;;;;;;5074284;28;20024;-64
2022/01/06 12:33:50;;;;;;;28.80;11.45;;;;;;;;;;5055672;28;20036;-64
2022/01/06 12:36:17;;;;;;;27.60;10.25;;;;;;;;;;5056512;28;20466;-65
2022/01/06 12:38:43;;;;;;;24.92;10.20;;;;;;;;;;5054186;28;20548;-66
2022/01/06 12:41:10;;;;;;;24.45;9.45;;;;;;;;;;5055768;28;20068;-64
2022/01/06 12:43:38;;;;;;;19.67;7.55;;;;;;;;;;5073296;28;20032;-64
2022/01/06 12:46:08;;;;;;;18.25;7.10;;;;;;;;;;5073082;28;20024;-64
2022/01/06 12:48:38;;;;;;;19.92;6.68;;;;;;;;;;5072637;28;20071;-64
2022/01/06 12:51:04;;;;;;;44.33;12.77;;;;;;;;;;5072943;28;20024;-63
2022/01/06 12:53:37;;;;;;;26.10;7.65;;;;;;;;;;5074229;28;20036;-62
2022/01/06 12:56:03;;;;;;;26.98;10.25;;;;;;;;;;5072892;28;20021;-63
2022/01/06 12:58:37;;;;;;;22.77;5.28;;;;;;;;;;5072749;28;20031;-63
2022/01/06 13:01:10;;;;;;;21.67;8.65;;;;;;;;;;5069940;28;20172;-62
2022/01/06 13:03:40;;;;;;;19.67;4.28;;;;;;;;;;5074013;28;20032;-64
2022/01/06 13:06:12;;;;;;;25.90;8.52;;;;;;;;;;5072528;28;20064;-62
2022/01/06 13:08:56;;;;;;;20.02;6.78;;;;;;;;;;5073719;28;20139;-63
2022/01/06 13:11:23;;;;;;;20.67;6.07;;;;;;;;;;5073823;28;20040;-63
2022/01/06 13:13:53;;;;;;;18.52;5.80;;;;;;;;;;5071315;28;20404;-63
2022/01/06 13:16:20;;;;;;;20.58;6.00;;;;;;;;;;5071626;28;20469;-62
2022/01/06 13:18:56;;;;;;;20.25;5.78;;;;;;;;;;5073315;28;20033;-66
2022/01/06 13:21:28;;;;;;;13.60;6.00;;;;;;;;;;5073405;28;20033;-63
2022/01/06 13:23:55;;;;;;;20.70;6.97;;;;;;;;;;5072723;28;20115;-64
2022/01/06 13:26:21;;;;;;;18.17;6.53;;;;;;;;;;5072467;28;20632;-63
2022/01/06 13:28:58;;;;;;;20.55;7.07;;;;;;;;;;5068084;28;20029;-67
2022/01/06 13:31:24;;;;;;;17.15;6.65;;;;;;;;;;5064273;28;20060;-63
2022/01/06 13:33:55;;;;;;;19.10;6.75;;;;;;;;;;5072296;28;20039;-62
2022/01/06 13:36:33;;;;;;;23.20;7.95;;;;;;;;;;5073526;28;20025;-62
2022/01/06 13:39:11;;;;;;;19.15;7.57;;;;;;;;;;5072212;28;20166;-63
2022/01/06 13:41:41;;;;;;;22.10;7.88;;;;;;;;;;5071739;28;20037;-63
2022/01/06 13:44:09;;;;;;;20.90;8.63;;;;;;;;;;5072633;28;20269;-64
2022/01/06 13:46:50;;;;;;;21.13;9.13;;;;;;;;;;5070836;28;20033;-63
2022/01/06 13:52:00;;;;;;;25.05;10.55;;;;;;;;;;5071755;28;19919;-63
2022/01/06 13:54:30;;;;;;;28.88;11.20;;;;;;;;;;5073200;28;20028;-63
2022/01/06 13:57:06;;;;;;;28.10;10.73;;;;;;;;;;5071509;28;20036;-64
2022/01/06 13:59:32;;;;;;;27.85;11.90;;;;;;;;;;5071864;28;20340;-62
2022/01/06 14:01:57;;;;;;;36.25;12.52;;;;;;;;;;5068497;28;20112;-62
2022/01/06 14:04:23;;;;;;;31.48;12.80;;;;;;;;;;5073090;28;20027;-63
2022/01/06 14:06:49;;;;;;;35.92;14.48;;;;;;;;;;5071960;28;20367;-66
2022/01/06 14:09:16;;;;;;;36.13;14.15;;;;;;;;;;5072962;28;20032;-62
2022/01/06 14:11:42;;;;;;;36.20;14.05;;;;;;;;;;5072524;28;20028;-63
2022/01/06 14:14:08;;;;;;;33.47;13.73;;;;;;;;;;5070542;28;20060;-62
2022/01/06 14:16:33;;;;;;;36.17;14.30;;;;;;;;;;5070788;28;20040;-63
2022/01/06 14:18:59;;;;;;;38.78;14.05;;;;;;;;;;5069909;28;20032;-63
2022/01/06 14:21:24;;;;;;;31.20;13.88;;;;;;;;;;5056252;28;20033;-61
2022/01/06 14:23:50;;;;;;;29.05;13.23;;;;;;;;;;5052239;28;20387;-65
2022/01/06 14:26:15;;;;;;;35.95;14.25;;;;;;;;;;5066244;28;20040;-63
2022/01/06 14:28:41;;;;;;;35.28;14.13;;;;;;;;;;5072497;28;20024;-62
2022/01/06 14:31:07;;;;;;;28.10;13.02;;;;;;;;;;5070899;28;20032;-62
2022/01/06 14:33:35;;;;;;;33.50;13.93;;;;;;;;;;5072311;28;20031;-62
2022/01/06 14:36:01;;;;;;;33.92;13.40;;;;;;;;;;5068037;28;20115;-61
2022/01/06 14:38:27;;;;;;;36.25;13.15;;;;;;;;;;5071919;28;20448;-63